Time;durP1;ratioP1;P1;durP2;ratioP2;P2;SDS_P1;SDS_P2;PMS_P1;PMS_P2;Temp;Humidity;BMP_temperature;BMP_pressure;BME280_temperature;BME280_humidity;BME280_pressure;Samples;Min_cycle;Max_cycle;Signal;HPM_P1;HPM_P2
2020/12/24 00:02:18;;;;;;;36.45;28.70;;;;;;;21.98;25.88;94802.13;5073740;28;20051;-42
2020/12/24 00:04:45;;;;;;;41.10;29.17;;;;;;;21.88;25.37;94793.94;5066394;28;20355;-42
2020/12/24 00:07:12;;;;;;;31.15;24.83;;;;;;;21.47;25.64;94796.03;5073851;28;20057;-42
2020/12/24 00:09:39;;;;;;;36.58;27.42;;;;;;;21.68;26.13;94806.41;5073534;28;20040;-42
2020/12/24 00:12:07;;;;;;;34.22;25.73;;;;;;;21.76;24.39;94802.78;5065551;28;20054;-41
2020/12/24 00:14:34;;;;;;;42.42;29.98;;;;;;;22.01;25.91;94790.78;5075127;28;20059;-47
2020/12/24 00:17:01;;;;;;;39.15;28.98;;;;;;;22.07;25.60;94801.97;5072752;28;20055;-41
2020/12/24 00:19:28;;;;;;;36.72;29.00;;;;;;;21.96;24.98;94796.41;5073642;28;20474;-47
2020/12/24 00:21:55;;;;;;;34.83;27.42;;;;;;;22.59;25.44;94790.84;5073430;28;20066;-40
2020/12/24 00:24:22;;;;;;;43.10;32.70;;;;;;;22.19;24.88;94787.78;5072729;28;20473;-48
2020/12/24 00:26:49;;;;;;;40.92;30.40;;;;;;;22.45;25.16;94786.03;5073088;28;20056;-42
2020/12/24 00:29:16;;;;;;;42.30;32.15;;;;;;;21.72;25.08;94783.31;5073626;28;20053;-41
2020/12/24 00:31:43;;;;;;;41.90;32.50;;;;;;;21.40;25.45;94790.56;5073103;28;20056;-42
2020/12/24 00:34:11;;;;;;;41.63;32.70;;;;;;;22.19;25.22;94790.44;5073480;28;20411;-41
2020/12/24 00:36:38;;;;;;;44.53;33.08;;;;;;;21.72;24.49;94788.63;5073287;28;20053;-42
2020/12/24 00:39:05;;;;;;;40.70;31.95;;;;;;;21.21;25.75;94793.88;5073551;28;20056;-42
2020/12/24 00:41:32;;;;;;;42.58;32.55;;;;;;;21.30;26.09;94781.19;5071265;28;20051;-42
2020/12/24 00:43:59;;;;;;;41.60;31.75;;;;;;;21.57;25.25;94784.09;5075163;28;20045;-42
2020/12/24 00:46:26;;;;;;;40.38;30.20;;;;;;;21.23;26.26;94781.81;5072994;28;20045;-41
2020/12/24 00:48:53;;;;;;;37.70;29.92;;;;;;;21.41;25.15;94782.22;5073125;28;20489;-42
2020/12/24 00:51:21;;;;;;;37.97;29.42;;;;;;;21.40;25.92;94779.91;5070443;28;20530;-42
2020/12/24 00:53:48;;;;;;;42.80;31.92;;;;;;;21.04;25.68;94789.66;5073357;28;20486;-42
2020/12/24 00:56:15;;;;;;;46.35;32.05;;;;;;;21.14;25.64;94788.38;5072297;28;20070;-41
2020/12/24 00:58:54;;;;;;;39.97;29.38;;;;;;;21.47;25.60;94791.50;5063760;28;20036;-41
2020/12/24 01:01:21;;;;;;;38.60;29.25;;;;;;;21.43;25.82;94790.63;5070570;28;20060;-42
2020/12/24 01:03:48;;;;;;;39.22;28.67;;;;;;;21.61;26.06;94795.63;5074749;28;20048;-41
2020/12/24 01:06:15;;;;;;;40.25;29.17;;;;;;;21.44;25.31;94802.03;5064978;28;20063;-42
2020/12/24 01:08:42;;;;;;;39.90;29.63;;;;;;;20.62;26.27;94794.63;5073090;28;20052;-41
2020/12/24 01:11:10;;;;;;;40.47;29.00;;;;;;;21.12;24.88;94787.97;5073030;28;20052;-42
2020/12/24 01:13:37;;;;;;;39.97;28.52;;;;;;;21.12;25.91;94787.97;5063278;28;20461;-42
2020/12/24 01:16:04;;;;;;;37.15;28.77;;;;;;;21.09;25.22;94780.66;5074881;28;20379;-42
2020/12/24 01:18:31;;;;;;;38.42;29.23;;;;;;;20.76;24.97;94778.28;5074402;28;20072;-41
2020/12/24 01:20:58;;;;;;;38.42;28.92;;;;;;;20.90;25.70;94784.75;5061764;28;20064;-41
2020/12/24 01:23:25;;;;;;;38.45;28.55;;;;;;;20.69;25.77;94770.91;5073332;28;20435;-42
2020/12/24 01:25:52;;;;;;;40.53;27.25;;;;;;;20.99;26.20;94775.84;5073496;28;20382;-44
2020/12/24 01:28:19;;;;;;;37.67;27.73;;;;;;;20.98;26.01;94774.28;5076760;28;20071;-41
2020/12/24 01:30:46;;;;;;;37.80;27.52;;;;;;;20.84;25.89;94769.41;5076520;28;20048;-41
2020/12/24 01:33:13;;;;;;;37.95;27.83;;;;;;;20.65;25.95;94750.69;5076358;28;20059;-41
2020/12/24 01:35:41;;;;;;;39.92;28.38;;;;;;;20.56;26.27;94754.28;5073563;28;20044;-41
2020/12/24 01:38:08;;;;;;;34.40;27.08;;;;;;;20.25;26.48;94749.59;5077291;28;20040;-41
2020/12/24 01:40:35;;;;;;;39.25;27.23;;;;;;;20.75;26.65;94745.63;5085695;28;20057;-41
2020/12/24 01:43:02;;;;;;;36.60;26.25;;;;;;;20.98;25.10;94747.72;5081023;28;20056;-43
2020/12/24 01:45:30;;;;;;;39.97;30.92;;;;;;;20.66;26.72;94747.69;5078085;28;20044;-49
2020/12/24 01:47:57;;;;;;;36.50;27.00;;;;;;;21.38;26.57;94744.94;5075346;28;20052;-43
2020/12/24 01:50:25;;;;;;;39.25;26.77;;;;;;;20.54;25.99;94739.78;5076566;28;20063;-42
2020/12/24 01:52:52;;;;;;;33.97;25.13;;;;;;;22.63;25.45;94749.03;5065618;28;20048;-42
2020/12/24 01:55:19;;;;;;;36.60;27.98;;;;;;;21.71;24.57;94753.28;5066884;28;20052;-41
2020/12/24 01:57:46;;;;;;;30.48;23.73;;;;;;;21.93;25.33;94748.41;5076278;28;20053;-42
2020/12/24 02:00:13;;;;;;;29.52;24.23;;;;;;;21.45;25.42;94753.06;5065614;28;20067;-41
2020/12/24 02:02:41;;;;;;;33.58;24.45;;;;;;;21.90;24.56;94746.44;5076189;28;20052;-44
2020/12/24 02:05:08;;;;;;;31.75;24.60;;;;;;;21.32;25.25;94752.38;5077955;28;20420;-41
2020/12/24 02:07:35;;;;;;;28.77;22.88;;;;;;;21.66;25.81;94752.78;5075805;28;20056;-41
2020/12/24 02:10:02;;;;;;;33.63;23.67;;;;;;;21.23;25.06;94738.47;5064917;28;20378;-44
2020/12/24 02:12:29;;;;;;;32.78;24.13;;;;;;;20.93;25.61;94741.56;5071961;28;20055;-42
2020/12/24 02:14:56;;;;;;;30.60;23.67;;;;;;;21.17;25.45;94739.84;5076720;28;20245;-41
2020/12/24 02:17:23;;;;;;;33.40;25.52;;;;;;;20.87;25.83;94736.84;5069440;28;20036;-41
2020/12/24 02:19:50;;;;;;;32.30;24.13;;;;;;;21.27;26.48;94738.56;5075972;28;20052;-54
2020/12/24 02:22:17;;;;;;;30.95;24.15;;;;;;;21.47;25.03;94734.88;5075069;28;20068;-42
2020/12/24 02:24:45;;;;;;;29.00;20.90;;;;;;;21.95;25.62;94736.28;5075357;28;20052;-43
2020/12/24 02:27:12;;;;;;;33.05;23.10;;;;;;;21.73;24.63;94742.28;5074048;28;20049;-47
2020/12/24 02:29:39;;;;;;;26.83;21.42;;;;;;;21.61;26.00;94737.09;5075760;28;20052;-43
2020/12/24 02:32:06;;;;;;;26.83;20.98;;;;;;;21.82;25.87;94748.16;5075504;28;20056;-42
2020/12/24 02:34:34;;;;;;;27.95;21.77;;;;;;;21.78;24.28;94736.69;5075627;28;20052;-42
2020/12/24 02:37:01;;;;;;;29.25;20.83;;;;;;;22.36;25.32;94728.75;5074722;28;20131;-41
2020/12/24 02:39:28;;;;;;;25.83;20.48;;;;;;;21.57;25.38;94733.56;5076945;28;20052;-43
2020/12/24 02:41:55;;;;;;;27.40;21.60;;;;;;;21.72;24.32;94732.75;5077083;28;20044;-43
2020/12/24 02:44:22;;;;;;;27.52;21.50;;;;;;;21.32;24.90;94730.31;5064554;28;20049;-41
2020/12/24 02:46:49;;;;;;;30.48;22.48;;;;;;;20.90;25.04;94731.63;5074858;28;20052;-42
2020/12/24 02:49:16;;;;;;;24.00;19.42;;;;;;;21.48;25.87;94729.19;5075258;28;20052;-42
2020/12/24 02:51:43;;;;;;;24.40;20.35;;;;;;;21.34;24.21;94720.91;5054943;28;20059;-41
2020/12/24 02:54:10;;;;;;;25.60;19.83;;;;;;;21.22;24.84;94716.41;5075476;28;20055;-43
2020/12/24 02:56:37;;;;;;;27.48;20.73;;;;;;;20.92;25.41;94716.09;5085195;28;20060;-42
2020/12/24 02:59:04;;;;;;;25.38;20.77;;;;;;;21.13;26.16;94718.50;5057881;28;20052;-43
2020/12/24 03:01:32;;;;;;;25.20;19.33;;;;;;;21.30;25.49;94712.06;5055351;28;20049;-43
2020/12/24 03:03:59;;;;;;;25.20;19.75;;;;;;;21.10;24.59;94707.78;5037702;28;20095;-43
2020/12/24 03:06:26;;;;;;;23.73;20.23;;;;;;;20.41;25.19;94704.56;5062881;28;20447;-42
2020/12/24 03:08:53;;;;;;;25.83;20.63;;;;;;;20.69;25.73;94704.50;5074806;28;20463;-41
2020/12/24 03:11:20;;;;;;;26.42;20.52;;;;;;;21.17;25.63;94703.41;5074826;28;20051;-42
2020/12/24 03:13:47;;;;;;;26.55;20.70;;;;;;;21.31;25.34;94707.50;5073048;28;20048;-42
2020/12/24 03:16:14;;;;;;;25.98;19.85;;;;;;;21.22;25.57;94705.03;5074595;28;20056;-41
2020/12/24 03:18:41;;;;;;;28.27;21.35;;;;;;;21.12;24.59;94705.56;5075889;28;20129;-50
2020/12/24 03:21:08;;;;;;;25.45;20.25;;;;;;;21.37;25.01;94712.25;5063173;28;20056;-41
2020/12/24 03:23:35;;;;;;;24.60;20.38;;;;;;;21.42;24.73;94713.88;5064658;28;20708;-43
2020/12/24 03:26:03;;;;;;;23.50;19.02;;;;;;;21.22;25.35;94707.69;5067747;28;20470;-42
2020/12/24 03:28:30;;;;;;;24.20;19.75;;;;;;;21.06;24.69;94702.34;5074318;28;20052;-42
2020/12/24 03:30:57;;;;;;;25.23;19.63;;;;;;;20.55;25.34;94714.75;5074557;28;20052;-57
2020/12/24 03:33:24;;;;;;;23.33;19.48;;;;;;;20.57;25.61;94712.56;5074924;28;20049;-55
2020/12/24 03:35:51;;;;;;;25.30;18.73;;;;;;;20.69;25.95;94703.75;5074580;28;20052;-42
2020/12/24 03:38:18;;;;;;;21.92;17.90;;;;;;;20.72;25.90;94717.09;5074779;28;20052;-43
2020/12/24 03:40:45;;;;;;;24.30;18.88;;;;;;;20.71;26.18;94707.59;5074521;28;20053;-43
2020/12/24 03:43:12;;;;;;;22.58;18.95;;;;;;;20.92;26.16;94716.09;5086996;28;20051;-47
2020/12/24 03:45:39;;;;;;;24.48;18.83;;;;;;;20.93;25.80;94708.91;5093997;28;20039;-44
2020/12/24 03:48:06;;;;;;;21.63;17.33;;;;;;;20.73;25.00;94713.34;5074441;28;20062;-43
2020/12/24 03:50:33;;;;;;;25.08;19.15;;;;;;;21.37;26.19;94711.47;5074053;28;20062;-42
2020/12/24 03:53:00;;;;;;;20.55;17.35;;;;;;;20.83;24.59;94709.41;5074401;28;20044;-43
2020/12/24 03:55:28;;;;;;;24.80;18.88;;;;;;;20.58;25.06;94711.44;5074343;28;20073;-43
2020/12/24 03:57:55;;;;;;;24.75;20.23;;;;;;;20.55;26.36;94709.44;5056803;28;20056;-44
2020/12/24 04:00:22;;;;;;;22.30;18.27;;;;;;;20.73;25.18;94721.31;5074298;28;20052;-43
2020/12/24 04:02:49;;;;;;;23.00;19.23;;;;;;;20.37;26.35;94718.81;5074204;28;20055;-42
2020/12/24 04:05:16;;;;;;;25.15;18.98;;;;;;;20.90;25.36;94720.97;5074011;28;20107;-42
2020/12/24 04:07:43;;;;;;;24.08;18.65;;;;;;;21.30;25.49;94724.59;5073968;28;20059;-43
2020/12/24 04:10:10;;;;;;;22.23;18.02;;;;;;;21.01;24.50;94713.25;5074260;28;20052;-44
2020/12/24 04:12:37;;;;;;;23.45;19.35;;;;;;;20.72;26.30;94714.44;5081735;28;20058;-44
2020/12/24 04:15:04;;;;;;;23.63;19.25;;;;;;;20.72;25.27;94714.44;5093566;28;20043;-42
2020/12/24 04:17:31;;;;;;;24.83;19.35;;;;;;;20.50;25.69;94715.78;5073687;28;20052;-43
2020/12/24 04:19:58;;;;;;;26.45;18.58;;;;;;;20.42;24.88;94705.31;5072652;28;20466;-44
2020/12/24 04:22:26;;;;;;;24.15;19.00;;;;;;;20.33;26.28;94708.88;5053756;28;20371;-43
2020/12/24 04:24:53;;;;;;;26.05;18.67;;;;;;;20.54;25.63;94718.53;5053814;28;20044;-42
2020/12/24 04:27:20;;;;;;;26.48;19.42;;;;;;;20.82;25.34;94710.53;5066700;28;20048;-43
2020/12/24 04:29:47;;;;;;;26.92;19.77;;;;;;;20.88;25.81;94707.28;5073939;28;20060;-57
2020/12/24 04:32:14;;;;;;;24.83;18.42;;;;;;;20.73;24.82;94713.34;5059813;28;20060;-48
2020/12/24 04:34:41;;;;;;;23.52;18.88;;;;;;;20.38;25.85;94712.41;5053820;28;20041;-42
2020/12/24 04:37:08;;;;;;;23.75;18.58;;;;;;;20.43;25.87;94712.19;5055466;28;20051;-43
2020/12/24 04:39:35;;;;;;;23.73;19.17;;;;;;;20.79;26.34;94709.31;5073875;28;20051;-46
2020/12/24 04:42:02;;;;;;;26.83;20.75;;;;;;;21.19;25.66;94708.38;5076614;28;20048;-45
2020/12/24 04:44:30;;;;;;;25.42;20.10;;;;;;;21.08;25.82;94710.00;5076195;28;20051;-46
2020/12/24 04:46:58;;;;;;;26.05;20.42;;;;;;;20.78;25.53;94705.09;5071909;28;20044;-43
2020/12/24 04:49:26;;;;;;;28.20;22.25;;;;;;;20.65;26.18;94706.31;5073802;28;20045;-42
2020/12/24 04:51:53;;;;;;;33.88;27.30;;;;;;;20.83;26.59;94709.41;5073669;28;20053;-43
2020/12/24 04:54:20;;;;;;;34.35;27.92;;;;;;;20.90;26.46;94696.28;5055991;28;20454;-44
2020/12/24 04:56:47;;;;;;;31.58;23.92;;;;;;;21.26;26.56;94700.56;5073182;28;20052;-44
2020/12/24 04:59:18;;;;;;;37.70;29.50;;;;;;;20.94;26.62;94702.47;5073641;28;20041;-44
2020/12/24 05:01:50;;;;;;;31.55;23.88;;;;;;;21.28;26.74;94703.66;5075871;28;20074;-44
2020/12/24 05:04:18;;;;;;;34.47;28.38;;;;;;;20.91;25.39;94706.59;5077566;28;20044;-43
2020/12/24 05:06:45;;;;;;;33.15;24.92;;;;;;;20.67;26.98;94693.44;5077212;28;20055;-48
2020/12/24 05:09:12;;;;;;;31.55;24.30;;;;;;;21.07;26.80;94703.13;5077379;28;20059;-42
2020/12/24 05:11:44;;;;;;;31.67;24.83;;;;;;;21.22;26.36;94699.69;5075189;28;20044;-43
2020/12/24 05:14:22;;;;;;;33.85;23.95;;;;;;;21.07;26.67;94703.13;5075406;28;20366;-42
2020/12/24 05:16:59;;;;;;;31.23;22.48;;;;;;;21.33;26.63;94700.72;5076630;28;20467;-42
2020/12/24 05:19:32;;;;;;;27.98;20.90;;;;;;;21.67;25.89;94703.78;5075735;28;20049;-42
2020/12/24 05:22:21;;;;;;;30.00;20.70;;;;;;;21.50;26.66;94700.38;5057061;28;20060;-43
2020/12/24 05:24:48;;;;;;;27.13;20.48;;;;;;;21.67;25.78;94706.44;5057071;28;20371;-43
2020/12/24 05:27:19;;;;;;;32.40;24.48;;;;;;;21.17;26.04;94708.72;5067509;28;20060;-48
2020/12/24 05:29:52;;;;;;;33.63;25.75;;;;;;;21.13;25.93;94704.44;5076965;28;20066;-42
2020/12/24 05:32:29;;;;;;;34.92;26.45;;;;;;;20.74;26.20;94698.16;5074363;28;20091;-43
2020/12/24 05:35:11;;;;;;;34.28;25.95;;;;;;;20.60;25.96;94696.72;5074295;28;20044;-42
2020/12/24 05:37:38;;;;;;;31.88;24.92;;;;;;;21.16;25.61;94693.13;5076689;28;20041;-44
2020/12/24 05:40:18;;;;;;;30.65;25.70;;;;;;;21.48;25.58;94691.19;5077168;28;20450;-42
2020/12/24 05:42:55;;;;;;;31.83;24.55;;;;;;;20.99;26.30;94690.81;5077029;28;20060;-44
2020/12/24 05:45:26;;;;;;;34.05;25.17;;;;;;;20.74;25.68;94698.16;5076601;28;20052;-44
2020/12/24 05:48:13;;;;;;;31.55;25.65;;;;;;;20.59;26.82;94699.72;5076983;28;20049;-43
2020/12/24 05:50:41;;;;;;;33.97;26.30;;;;;;;20.52;26.25;94699.50;5076776;28;20060;-44
2020/12/24 05:53:10;;;;;;;32.97;26.02;;;;;;;20.66;26.55;94694.56;5076806;28;20044;-43
2020/12/24 05:55:41;;;;;;;36.60;26.25;;;;;;;20.82;26.02;94692.69;5076502;28;20336;-44
2020/12/24 05:58:09;;;;;;;32.97;25.85;;;;;;;20.83;25.81;94694.25;5076736;28;20088;-44
2020/12/24 06:00:39;;;;;;;32.10;25.58;;;;;;;20.64;25.58;94691.47;5076509;28;20048;-44
2020/12/24 06:03:15;;;;;;;33.47;25.92;;;;;;;20.75;25.83;94687.19;5068017;28;20052;-43
2020/12/24 06:05:59;;;;;;;32.28;24.45;;;;;;;20.52;25.56;94688.88;5075344;28;20048;-45
2020/12/24 06:08:34;;;;;;;28.85;23.90;;;;;;;20.46;25.59;94684.94;5076479;28;20052;-44
2020/12/24 06:11:04;;;;;;;29.02;24.40;;;;;;;20.35;26.09;94694.50;5076283;28;20048;-43
2020/12/24 06:13:41;;;;;;;33.38;26.60;;;;;;;20.60;26.26;94690.63;5076185;28;20055;-43
2020/12/24 06:16:10;;;;;;;29.48;23.15;;;;;;;20.31;26.06;94686.44;5076044;28;20044;-44
2020/12/24 06:18:42;;;;;;;27.52;22.48;;;;;;;20.11;26.00;94674.91;5070311;28;20041;-45
2020/12/24 06:21:17;;;;;;;31.03;23.27;;;;;;;20.31;26.25;94687.22;5056086;28;20067;-44
2020/12/24 06:23:58;;;;;;;27.85;22.90;;;;;;;20.51;25.70;94684.69;5056122;28;20057;-44
2020/12/24 06:26:46;;;;;;;29.02;22.15;;;;;;;20.37;25.85;94687.72;5056083;28;20045;-44
2020/12/24 06:29:15;;;;;;;26.77;21.58;;;;;;;20.28;26.18;94690.53;5054944;28;20052;-44
2020/12/24 06:31:44;;;;;;;27.98;20.75;;;;;;;20.06;26.86;94693.75;5054774;28;20055;-44
2020/12/24 06:34:30;;;;;;;33.80;23.15;;;;;;;20.39;26.90;94693.47;5071653;28;20075;-43
2020/12/24 06:37:11;;;;;;;31.42;23.50;;;;;;;20.79;26.49;94690.72;5075973;28;20047;-51
2020/12/24 06:39:40;;;;;;;30.42;22.65;;;;;;;21.04;25.71;94688.66;5072075;28;20049;-54
2020/12/24 06:42:30;;;;;;;27.17;21.52;;;;;;;21.47;25.43;94690.44;5055645;28;20060;-44
2020/12/24 06:44:57;;;;;;;28.02;20.92;;;;;;;21.93;25.12;94689.84;5066480;28;20044;-44
2020/12/24 06:47:24;;;;;;;27.17;21.70;;;;;;;21.99;24.96;94689.22;5075630;28;20052;-49
2020/12/24 06:49:52;;;;;;;30.52;24.00;;;;;;;21.95;24.80;94688.38;5075460;28;20052;-44
2020/12/24 06:52:36;;;;;;;27.30;22.40;;;;;;;22.34;25.10;94683.81;5074384;28;20057;-44
2020/12/24 06:55:14;;;;;;;29.30;23.15;;;;;;;22.52;24.99;94689.47;5064041;28;20371;-55
2020/12/24 06:57:42;;;;;;;30.35;24.27;;;;;;;22.60;25.24;94693.81;5075549;28;20056;-46
2020/12/24 07:00:27;;;;;;;31.55;25.20;;;;;;;22.72;25.10;94698.22;5066267;28;20045;-44
2020/12/24 07:02:54;;;;;;;33.05;25.63;;;;;;;22.92;24.81;94696.28;5061691;28;20059;-44
2020/12/24 07:05:40;;;;;;;34.17;26.00;;;;;;;23.13;24.45;94693.94;5075086;28;20059;-43
2020/12/24 07:08:09;;;;;;;33.38;25.27;;;;;;;23.00;26.23;94692.59;5075502;28;20059;-45
2020/12/24 07:11:02;;;;;;;28.70;23.92;;;;;;;23.33;26.01;94692.72;5065092;28;20057;-43
2020/12/24 07:13:35;;;;;;;28.73;24.73;;;;;;;23.03;24.75;94692.66;5052239;28;20041;-45
2020/12/24 07:16:04;;;;;;;31.75;25.70;;;;;;;22.80;25.01;94693.75;5071072;28;20053;-44
2020/12/24 07:18:32;;;;;;;32.90;27.58;;;;;;;22.64;25.34;94697.31;5057758;28;20474;-45
2020/12/24 07:21:01;;;;;;;28.23;25.05;;;;;;;22.83;24.80;94698.41;5063264;28;20049;-45
2020/12/24 07:23:29;;;;;;;28.13;23.38;;;;;;;22.49;24.70;94690.19;5054491;28;20367;-44
2020/12/24 07:25:58;;;;;;;27.52;23.35;;;;;;;22.45;24.61;94689.38;5069792;28;20048;-43
2020/12/24 07:28:33;;;;;;;27.33;23.40;;;;;;;22.26;25.25;94679.50;5074959;28;20383;-45
2020/12/24 07:31:10;;;;;;;30.40;24.65;;;;;;;22.62;24.60;94683.56;5074620;28;20052;-44
2020/12/24 07:33:45;;;;;;;31.17;25.23;;;;;;;22.71;24.85;94691.34;5061958;28;20068;-45
2020/12/24 07:36:12;;;;;;;30.27;25.27;;;;;;;22.42;24.77;94690.84;5071292;28;20052;-45
2020/12/24 07:38:40;;;;;;;30.10;25.05;;;;;;;22.36;25.82;94684.25;5074851;28;20448;-44
2020/12/24 07:41:15;;;;;;;27.02;24.13;;;;;;;22.64;25.08;94678.69;5074585;28;20465;-45
2020/12/24 07:43:42;;;;;;;27.98;24.23;;;;;;;22.63;25.21;94669.13;5074589;28;20056;-45
2020/12/24 07:46:09;;;;;;;29.77;26.20;;;;;;;23.25;25.25;94669.75;5074441;28;20048;-44
2020/12/24 07:48:38;;;;;;;27.83;24.08;;;;;;;23.57;24.13;94670.22;5074792;28;20054;-44
2020/12/24 07:51:09;;;;;;;29.10;24.45;;;;;;;23.68;23.76;94673.84;5066672;28;20398;-44
2020/12/24 07:53:36;;;;;;;28.92;25.45;;;;;;;23.80;24.08;94680.84;5054415;28;20478;-45
2020/12/24 07:56:10;;;;;;;27.67;24.27;;;;;;;24.02;23.25;94683.78;5070606;28;20055;-46
2020/12/24 07:58:39;;;;;;;30.40;25.00;;;;;;;24.14;23.54;94683.50;5071890;28;20056;-45
2020/12/24 08:01:06;;;;;;;30.85;25.92;;;;;;;24.12;23.79;94686.56;5054288;28;20375;-45
2020/12/24 08:03:33;;;;;;;31.52;25.20;;;;;;;24.39;23.40;94679.25;5065784;28;20052;-44
2020/12/24 08:06:05;;;;;;;35.63;29.67;;;;;;;24.50;23.65;94690.06;5087551;28;20044;-44
2020/12/24 08:08:35;;;;;;;42.00;35.17;;;;;;;24.74;22.69;94681.50;5069130;28;20060;-45
2020/12/24 08:11:09;;;;;;;37.55;31.65;;;;;;;24.53;23.48;94692.75;5053839;28;20051;-44
2020/12/24 08:13:36;;;;;;;37.20;30.88;;;;;;;24.58;22.93;94681.75;5054028;28;20486;-45
2020/12/24 08:16:03;;;;;;;26.80;23.90;;;;;;;24.76;23.09;94683.81;5082912;28;20044;-45
2020/12/24 08:18:37;;;;;;;27.77;23.17;;;;;;;25.04;22.86;94676.06;5076663;28;20048;-44
2020/12/24 08:21:24;;;;;;;43.13;35.20;;;;;;;25.39;23.44;94688.16;5052996;28;20059;-43
2020/12/24 08:24:11;;;;;;;46.58;39.45;;;;;;;25.14;22.70;94686.06;5053065;28;20048;-44
2020/12/24 08:26:38;;;;;;;22.58;19.83;;;;;;;24.88;22.85;94688.88;5090600;28;20047;-45
2020/12/24 08:29:08;;;;;;;25.35;20.42;;;;;;;25.00;22.95;94685.97;5094104;28;20059;-44
2020/12/24 08:31:42;;;;;;;21.88;19.58;;;;;;;25.19;22.54;94688.38;5094033;28;20044;-45
2020/12/24 08:34:10;;;;;;;37.30;30.85;;;;;;;24.94;22.49;94689.31;5059055;28;20048;-45
2020/12/24 08:36:46;;;;;;;40.33;34.70;;;;;;;24.91;22.50;94682.78;5091167;28;20044;-44
2020/12/24 08:39:15;;;;;;;40.50;36.10;;;;;;;24.98;23.63;94677.50;5093993;28;20048;-45
2020/12/24 08:41:47;;;;;;;34.92;28.85;;;;;;;24.82;23.56;94674.31;5093773;28;20051;-45
2020/12/24 08:44:18;;;;;;;25.90;22.20;;;;;;;25.38;23.13;94683.94;5094115;28;20055;-44
2020/12/24 08:47:06;;;;;;;22.60;20.15;;;;;;;25.56;22.56;94674.13;5065206;28;20075;-44
2020/12/24 08:49:41;;;;;;;19.58;17.20;;;;;;;25.69;22.74;94674.59;5053350;28;20389;-44
2020/12/24 08:52:22;;;;;;;22.45;18.45;;;;;;;25.87;22.65;94677.38;5053644;28;20045;-44
2020/12/24 08:55:07;;;;;;;18.80;16.77;;;;;;;26.12;22.45;94664.84;5059588;28;20047;-44
2020/12/24 08:57:35;;;;;;;19.95;16.58;;;;;;;25.63;22.51;94658.09;5093797;28;20044;-43
2020/12/24 09:00:07;;;;;;;18.95;16.45;;;;;;;25.86;22.59;94654.41;5093988;28;20044;-44
2020/12/24 09:02:36;;;;;;;20.05;17.20;;;;;;;26.25;22.35;94655.28;5089671;28;20044;-44
2020/12/24 09:05:07;;;;;;;20.30;16.65;;;;;;;26.24;22.20;94648.41;5078118;28;20055;-43
2020/12/24 09:07:36;;;;;;;19.88;16.27;;;;;;;26.23;21.96;94646.88;5041596;28;20041;-45
2020/12/24 09:10:24;;;;;;;20.95;16.00;;;;;;;26.45;22.49;94641.59;5053298;28;20049;-45
2020/12/24 09:13:01;;;;;;;19.83;16.10;;;;;;;26.79;21.87;94634.72;5053502;28;20045;-45
2020/12/24 09:15:29;;;;;;;19.77;16.88;;;;;;;26.49;21.62;94637.78;5068407;28;20055;-44
2020/12/24 09:17:57;;;;;;;19.38;16.38;;;;;;;26.35;22.76;94627.81;5093694;28;20051;-44
2020/12/24 09:20:26;;;;;;;21.45;16.00;;;;;;;26.97;22.14;94615.97;5084134;28;20444;-45
2020/12/24 09:22:56;;;;;;;18.42;14.70;;;;;;;27.03;21.19;94617.91;5054521;28;20045;-43
2020/12/24 09:25:36;;;;;;;13.55;12.07;;;;;;;27.67;20.86;94616.28;5066336;28;20509;-42
2020/12/24 09:28:06;;;;;;;13.32;10.77;;;;;;;27.50;20.92;94613.22;5070976;28;20051;-43
2020/12/24 09:30:33;;;;;;;14.63;11.75;;;;;;;27.69;20.75;94600.53;5079710;28;20041;-45
2020/12/24 09:33:03;;;;;;;14.65;12.40;;;;;;;27.55;21.25;94615.50;5063106;28;20072;-42
2020/12/24 09:35:30;;;;;;;13.55;12.23;;;;;;;27.82;21.28;94604.31;5069919;28;20059;-43
2020/12/24 09:37:57;;;;;;;18.85;15.23;;;;;;;27.99;20.83;94600.78;5072529;28;20047;-43
2020/12/24 09:40:24;;;;;;;47.00;39.97;;;;;;;28.19;20.53;94599.16;5072128;28;20045;-44
2020/12/24 09:42:52;;;;;;;50.70;41.88;;;;;;;28.16;20.59;94594.56;5072640;28;20040;-43
2020/12/24 09:45:19;;;;;;;65.45;57.72;;;;;;;28.28;20.49;94589.91;5072442;28;20585;-43
2020/12/24 09:47:48;;;;;;;70.53;60.60;;;;;;;27.41;21.47;94583.34;5071973;28;20053;-44
2020/12/24 09:50:15;;;;;;;76.78;67.72;;;;;;;27.27;21.57;94588.72;5076116;28;20055;-44
2020/12/24 09:52:42;;;;;;;80.05;68.45;;;;;;;27.92;20.92;94579.34;5058627;28;20056;-42
2020/12/24 09:55:09;;;;;;;70.43;61.83;;;;;;;27.65;21.03;94571.00;5078270;28;20462;-43
2020/12/24 09:57:36;;;;;;;46.92;39.35;;;;;;;27.77;21.15;94565.19;5082803;28;20064;-55
2020/12/24 10:00:09;;;;;;;44.08;39.28;;;;;;;27.79;21.84;94554.81;5087402;28;20469;-49
2020/12/24 10:02:36;;;;;;;32.45;27.75;;;;;;;27.70;20.94;94559.09;5085092;28;20437;-49
2020/12/24 10:05:05;;;;;;;26.35;23.25;;;;;;;27.52;20.86;94559.13;5079203;28;20071;-44
2020/12/24 10:07:32;;;;;;;24.45;21.67;;;;;;;27.72;20.70;94548.72;5076370;28;20048;-44
2020/12/24 10:09:59;;;;;;;25.65;21.85;;;;;;;27.59;20.99;94541.09;5076393;28;20057;-44
2020/12/24 10:12:28;;;;;;;31.70;24.38;;;;;;;27.58;21.01;94539.53;5076284;28;20048;-44
2020/12/24 10:14:56;;;;;;;28.50;22.63;;;;;;;27.75;20.84;94542.56;5076298;28;20063;-45
2020/12/24 10:17:23;;;;;;;27.00;22.58;;;;;;;27.68;21.26;94545.31;5076314;28;20044;-45
2020/12/24 10:19:56;;;;;;;33.92;26.58;;;;;;;27.76;20.35;94541.41;5076157;28;20044;-45
2020/12/24 10:22:23;;;;;;;;;;;;;;;27.56;20.31;94544.53;5076789;28;20052;-53
2020/12/24 10:24:50;;;;;;;39.97;32.55;;;;;;;27.68;20.07;94527.25;5075968;28;20226;-55
2020/12/24 10:27:17;;;;;;;35.65;29.02;;;;;;;27.56;20.51;94531.09;5076522;28;20040;-46
2020/12/24 10:29:44;;;;;;;27.23;24.33;;;;;;;27.69;20.75;94528.78;5076255;28;20048;-50
2020/12/24 10:32:12;;;;;;;30.05;23.45;;;;;;;27.69;20.61;94503.84;5076527;28;20044;-43
2020/12/24 10:34:39;;;;;;;27.40;24.40;;;;;;;28.84;19.47;94518.78;5096345;28;20048;-44
2020/12/24 10:37:06;;;;;;;246.63;219.88;;;;;;;28.81;19.36;94509.56;5077212;28;20053;-45
2020/12/24 10:39:33;;;;;;;99.32;88.68;;;;;;;28.82;19.30;94511.09;5075864;28;20055;-45
2020/12/24 10:42:00;;;;;;;46.08;41.28;;;;;;;29.05;18.80;94507.84;5073592;28;20456;-45
2020/12/24 10:44:28;;;;;;;47.45;39.10;;;;;;;28.97;19.34;94509.06;5055718;28;20111;-46
2020/12/24 10:46:56;;;;;;;34.08;28.60;;;;;;;29.08;19.19;94507.03;5072348;28;20059;-45
2020/12/24 10:49:25;;;;;;;20.73;17.00;;;;;;;29.12;18.59;94498.91;5075663;28;20044;-45
2020/12/24 10:51:52;;;;;;;42.03;35.60;;;;;;;29.13;19.08;94498.50;5075385;28;20064;-45
2020/12/24 10:54:19;;;;;;;39.05;31.15;;;;;;;29.29;17.98;94486.44;5075887;28;20052;-46
2020/12/24 10:56:50;;;;;;;61.67;53.25;;;;;;;29.55;18.14;94491.13;5075364;28;20056;-55
2020/12/24 10:59:17;;;;;;;47.50;37.63;;;;;;;29.71;18.94;94482.47;5072607;28;20048;-45
2020/12/24 11:01:48;;;;;;;25.25;21.30;;;;;;;29.88;18.15;94478.75;5055257;28;20045;-44
2020/12/24 11:04:15;;;;;;;26.20;19.15;;;;;;;29.89;17.87;94482.97;5072892;28;20048;-46
2020/12/24 11:06:43;;;;;;;20.52;17.48;;;;;;;28.91;19.16;94475.72;5075109;28;20356;-51
2020/12/24 11:09:11;;;;;;;27.02;21.13;;;;;;;28.93;19.06;94467.22;5075380;28;20052;-47
2020/12/24 11:11:38;;;;;;;23.88;19.83;;;;;;;28.71;18.91;94462.03;5075031;28;20044;-47
2020/12/24 11:14:06;;;;;;;25.10;19.77;;;;;;;28.59;19.67;94462.53;5072719;28;20379;-47
2020/12/24 11:16:33;;;;;;;25.98;21.20;;;;;;;27.92;20.20;94467.28;5067765;28;20044;-48
2020/12/24 11:19:00;;;;;;;26.20;22.60;;;;;;;27.87;20.49;94456.19;5075181;28;20059;-45
2020/12/24 11:21:31;;;;;;;28.98;24.40;;;;;;;28.16;20.78;94460.19;5074032;28;20044;-49
2020/12/24 11:24:04;;;;;;;26.77;23.95;;;;;;;28.00;19.91;94449.16;5075161;28;20048;-47
2020/12/24 11:26:32;;;;;;;29.15;24.50;;;;;;;28.37;20.59;94445.09;5074679;28;20049;-48
2020/12/24 11:28:59;;;;;;;30.63;24.70;;;;;;;27.95;20.70;94449.59;5075080;28;20052;-50